VYYY/RGN METAR and TAF weather

Enter ICAO airport designator
Station Type Date Time Source
VYYY METAR 2024/02/26 17:30 UTC NOAA

VYYY 261730Z 22003KT 6000 FEW025 28/25 Q1010 NOSIG


Station Type Date Time Source
VYYY Decoded METAR 2024/02/26 17:30 UTC NOAA

Yangon, Myanmar (VYYY) 16-46N 096-10E 15M
Feb 26, 2024 - 12:30 PM EST / 2024.02.26 1730 UTC
Wind: from the SW (220 degrees) at 3 MPH (3 KT):0
Visibility: 3 mile(s):0
Sky conditions: mostly clear
Temperature: 82 F (28 C)
Dew Point: 77 F (25 C)
Relative Humidity: 83%
Pressure (altimeter): 29.83 in. Hg (1010 hPa)
ob: VYYY 261730Z 22003KT 6000 FEW025 28/25 Q1010 NOSIG
cycle: 17

Station Type Date Time Source
VYYY TAF 2024/02/26 18:39 UTC NOAA